Time;durP1;ratioP1;P1;durP2;ratioP2;P2;SDS_P1;SDS_P2;PMS_P1;PMS_P2;Temp;Humidity;BMP_temperature;BMP_pressure;BME280_temperature;BME280_humidity;BME280_pressure;Samples;Min_cycle;Max_cycle;Signal;HPM_P1;HPM_P2
2022/04/22 00:00:37;;;;;;;31.13;19.33;;;;;;;10.88;100.00;94585.81;5032346;28;20673;-82
2022/04/22 00:03:07;;;;;;;29.53;18.43;;;;;;;10.76;100.00;94576.13;5024275;28;20210;-82
2022/04/22 00:05:34;;;;;;;28.20;19.00;;;;;;;10.81;100.00;94578.09;5025565;28;20202;-80
2022/04/22 00:08:02;;;;;;;29.93;19.17;;;;;;;10.68;100.00;94557.47;5032812;28;20194;-82
2022/04/22 00:10:29;;;;;;;34.03;19.57;;;;;;;10.74;100.00;94572.19;5032787;28;20217;-82
2022/04/22 00:12:56;;;;;;;30.10;19.47;;;;;;;10.72;100.00;94574.22;5032254;28;20191;-82
2022/04/22 00:15:24;;;;;;;30.73;19.87;;;;;;;10.60;100.00;94547.38;5015015;28;20195;-90
2022/04/22 00:17:51;;;;;;;29.80;19.93;;;;;;;10.63;100.00;94560.72;5033211;28;20575;-86
2022/04/22 00:20:20;;;;;;;29.63;17.70;;;;;;;10.72;100.00;94563.81;5033539;28;20289;-86
2022/04/22 00:22:47;;;;;;;25.70;18.23;;;;;;;10.70;100.00;94551.06;5033115;28;20210;-84
2022/04/22 00:25:14;;;;;;;28.57;18.60;;;;;;;10.72;100.00;94541.22;5032698;28;20233;-86
2022/04/22 00:27:42;;;;;;;31.60;19.17;;;;;;;10.72;100.00;94530.81;5026561;28;20195;-86
2022/04/22 00:30:11;;;;;;;33.73;19.30;;;;;;;10.64;100.00;94532.94;5016527;28;20199;-85
2022/04/22 00:32:38;;;;;;;29.20;18.17;;;;;;;10.63;100.00;94544.34;5018255;28;20200;-86
2022/04/22 00:35:06;;;;;;;29.50;19.30;;;;;;;10.50;100.00;94521.16;5012702;28;20192;-85
2022/04/22 00:37:35;;;;;;;29.80;18.37;;;;;;;10.59;100.00;94532.81;5012528;28;20665;-85
2022/04/22 00:40:02;;;;;;;28.27;19.10;;;;;;;10.63;100.00;94557.34;5011913;28;20192;-85
2022/04/22 00:42:29;;;;;;;28.83;18.27;;;;;;;10.57;100.00;94559.00;5012625;28;20202;-85
2022/04/22 00:44:57;;;;;;;28.37;19.60;;;;;;;10.57;100.00;94547.81;5012468;28;20303;-84
2022/04/22 00:47:24;;;;;;;29.63;18.23;;;;;;;10.52;100.00;94545.09;5013261;28;20199;-84
2022/04/22 00:49:51;;;;;;;30.97;19.33;;;;;;;10.56;100.00;94539.22;5027540;28;20198;-85
2022/04/22 00:52:19;;;;;;;24.77;18.30;;;;;;;10.57;100.00;94546.03;5031812;28;20195;-84
2022/04/22 00:54:49;;;;;;;27.80;18.77;;;;;;;10.57;100.00;94534.81;5031482;28;20367;-84
2022/04/22 00:57:18;;;;;;;27.73;19.43;;;;;;;10.60;100.00;94514.41;5024806;28;20198;-84
2022/04/22 00:59:45;;;;;;;32.20;19.73;;;;;;;10.52;100.00;94508.72;5031117;28;20233;-84
2022/04/22 01:02:12;;;;;;;28.97;19.87;;;;;;;10.47;100.00;94511.19;5021705;28;20230;-84
2022/04/22 01:10:10;;;;;;;28.53;19.47;;;;;;;10.46;100.00;94489.63;5012102;28;20603;-84
2022/04/22 01:12:37;;;;;;;29.43;19.73;;;;;;;10.34;100.00;94486.16;5011695;28;20203;-84
2022/04/22 01:15:06;;;;;;;27.70;19.63;;;;;;;10.47;100.00;94480.81;5023053;28;20222;-84
2022/04/22 01:17:33;;;;;;;30.03;18.87;;;;;;;10.43;100.00;94477.06;5031864;28;20203;-86
2022/04/22 01:20:00;;;;;;;28.90;17.80;;;;;;;10.31;100.00;94455.44;5031723;28;20218;-87
2022/04/22 01:22:28;;;;;;;28.37;17.73;;;;;;;10.40;100.00;94464.50;5022565;28;20205;-86
2022/04/22 01:24:57;;;;;;;31.87;18.57;;;;;;;10.39;100.00;94464.75;5011696;28;20380;-86
2022/04/22 01:27:27;;;;;;;27.07;18.33;;;;;;;10.39;100.00;94467.34;5028468;28;20198;-86
2022/04/22 01:29:54;;;;;;;24.10;17.03;;;;;;;10.43;100.00;94460.69;5031400;28;20191;-89
2022/04/22 01:32:21;;;;;;;34.90;18.27;;;;;;;10.44;100.00;94454.47;5031616;28;20661;-88
2022/04/22 01:34:48;;;;;;;25.37;17.03;;;;;;;10.40;100.00;94427.34;5031688;28;20298;-88
2022/04/22 01:37:15;;;;;;;27.03;16.57;;;;;;;10.47;100.00;94430.66;5031796;28;20205;-88
2022/04/22 01:39:43;;;;;;;29.13;16.63;;;;;;;10.30;100.00;94416.72;5026448;28;20223;-88
2022/04/22 01:42:10;;;;;;;30.03;18.40;;;;;;;10.36;100.00;94442.56;5023855;28;20191;-86
2022/04/22 01:44:37;;;;;;;23.70;16.63;;;;;;;10.34;100.00;94417.84;5021034;28;20199;-86
2022/04/22 01:47:04;;;;;;;25.00;17.73;;;;;;;10.32;100.00;94432.88;5011469;28;20286;-84
2022/04/22 01:49:31;;;;;;;23.93;16.50;;;;;;;10.35;100.00;94446.22;5020826;28;20209;-84
2022/04/22 01:51:58;;;;;;;26.57;16.93;;;;;;;10.30;100.00;94443.50;5031147;28;20286;-85
2022/04/22 01:54:25;;;;;;;29.00;17.57;;;;;;;10.29;100.00;94446.28;5027450;28;20191;-85
2022/04/22 01:56:53;;;;;;;25.10;17.50;;;;;;;10.29;100.00;94457.47;5021108;28;20195;-85
2022/04/22 01:59:20;;;;;;;26.00;16.43;;;;;;;10.29;100.00;94465.28;5021364;28;20216;-84
2022/04/22 02:01:46;;;;;;;24.30;17.27;;;;;;;10.23;100.00;94455.75;5030595;28;20203;-84
2022/04/22 02:04:13;;;;;;;25.43;17.60;;;;;;;10.29;100.00;94485.25;5030599;28;20583;-85
2022/04/22 02:06:40;;;;;;;39.27;24.00;;;;;;;10.24;100.00;94494.47;5030877;28;20203;-85
2022/04/22 02:09:07;;;;;;;38.10;23.10;;;;;;;10.17;100.00;94505.97;5011471;28;20674;-84
2022/04/22 02:11:35;;;;;;;39.43;23.23;;;;;;;10.13;100.00;94504.81;5011096;28;20191;-84
2022/04/22 02:14:03;;;;;;;35.60;21.63;;;;;;;9.99;100.00;94503.34;5011155;28;20199;-83
2022/04/22 02:16:30;;;;;;;38.20;21.63;;;;;;;9.87;100.00;94503.28;5010756;28;20230;-81
2022/04/22 02:18:57;;;;;;;34.13;20.90;;;;;;;9.82;100.00;94507.56;5011130;28;20232;-88
2022/04/22 02:21:24;;;;;;;35.93;22.23;;;;;;;9.76;100.00;94506.63;5019816;28;20199;-87
2022/04/22 02:23:51;;;;;;;33.70;21.07;;;;;;;9.84;100.00;94492.56;5030553;28;20233;-87
2022/04/22 02:26:17;;;;;;;29.60;19.00;;;;;;;9.85;100.00;94494.13;5031056;28;20202;-86
2022/04/22 02:28:43;;;;;;;27.83;19.10;;;;;;;9.80;100.00;94483.63;5031138;28;20195;-87
2022/04/22 02:31:13;;;;;;;36.37;19.60;;;;;;;9.83;100.00;94473.59;5032298;28;20214;-89
2022/04/22 02:33:41;;;;;;;31.97;18.40;;;;;;;9.86;100.00;94464.59;5024461;28;20570;-91
2022/04/22 02:36:09;;;;;;;28.03;19.73;;;;;;;9.70;100.00;94440.81;5012923;28;20188;-91
2022/04/22 02:38:37;;;;;;;32.03;20.97;;;;;;;9.69;100.00;94431.47;5012208;28;20223;-91
2022/04/22 02:46:35;;;;;;;29.67;18.07;;;;;;;9.89;100.00;94462.38;5031946;28;20241;-91
2022/04/22 02:49:02;;;;;;;32.33;18.63;;;;;;;9.88;100.00;94467.75;5032138;28;20205;-91
2022/04/22 02:51:30;;;;;;;29.47;19.00;;;;;;;9.80;100.00;94465.47;5031373;28;20644;-88
2022/04/22 02:53:57;;;;;;;29.87;19.03;;;;;;;9.86;100.00;94465.38;5030678;28;20183;-88
2022/04/22 02:56:25;;;;;;;33.87;20.17;;;;;;;9.87;100.00;94461.00;5030948;28;20191;-88
2022/04/22 02:58:53;;;;;;;29.03;19.53;;;;;;;9.84;100.00;94449.22;5025265;28;20221;-88
2022/04/22 03:01:21;;;;;;;32.03;19.13;;;;;;;9.91;100.00;94459.53;5031244;28;20203;-89
2022/04/22 03:03:49;;;;;;;26.50;17.03;;;;;;;9.87;100.00;94466.97;5013294;28;20199;-89
2022/04/22 03:06:17;;;;;;;28.00;17.37;;;;;;;9.86;100.00;94447.22;5015394;28;20209;-89
2022/04/22 03:08:44;;;;;;;25.43;16.60;;;;;;;9.79;100.00;94437.91;5016392;28;20192;-89
2022/04/22 03:11:11;;;;;;;25.20;16.30;;;;;;;9.71;100.00;94431.22;5016688;28;20279;-89
2022/04/22 03:13:39;;;;;;;24.93;16.47;;;;;;;9.78;100.00;94444.94;5023626;28;20211;-90
2022/04/22 03:16:06;;;;;;;25.93;15.80;;;;;;;9.87;100.00;94453.97;5057126;28;20199;-86
2022/04/22 03:18:34;;;;;;;26.43;16.43;;;;;;;9.84;100.00;94451.81;5037851;28;20202;-85
2022/04/22 03:21:03;;;;;;;23.47;16.07;;;;;;;9.80;100.00;94457.66;5033166;28;20202;-85
2022/04/22 03:23:30;;;;;;;27.40;17.37;;;;;;;9.94;100.00;94479.88;5015116;28;20232;-86
2022/04/22 03:25:57;;;;;;;28.23;18.77;;;;;;;9.93;100.00;94480.88;5016207;28;20192;-84
2022/04/22 03:28:24;;;;;;;29.03;19.07;;;;;;;9.87;100.00;94479.94;5027010;28;20615;-86
2022/04/22 03:30:51;;;;;;;31.20;18.87;;;;;;;9.94;100.00;94493.63;5028045;28;20195;-89
2022/04/22 03:33:19;;;;;;;33.63;20.53;;;;;;;9.92;100.00;94494.88;5040194;28;20195;-86
2022/04/22 03:35:50;;;;;;;30.40;20.70;;;;;;;9.95;100.00;94487.44;5038041;28;20198;-84
2022/04/22 03:38:19;;;;;;;36.77;20.33;;;;;;;9.95;100.00;94478.88;5035518;28;20519;-85
2022/04/22 03:40:46;;;;;;;34.13;21.50;;;;;;;9.96;100.00;94491.63;5025003;28;20273;-86
2022/04/22 03:43:13;;;;;;;35.50;22.00;;;;;;;9.87;100.00;94479.94;5015734;28;20202;-86
2022/04/22 03:45:40;;;;;;;35.80;21.77;;;;;;;9.97;100.00;94495.00;5033762;28;20183;-86
2022/04/22 03:48:07;;;;;;;36.90;23.37;;;;;;;10.05;100.00;94510.28;5033595;28;20202;-87
2022/04/22 03:50:35;;;;;;;40.70;26.13;;;;;;;10.04;100.00;94499.09;5033666;28;20570;-87
2022/04/22 03:53:03;;;;;;;40.67;25.20;;;;;;;9.99;100.00;94495.56;5033664;28;20213;-85
2022/04/22 03:55:32;;;;;;;40.03;24.97;;;;;;;10.02;100.00;94490.75;5033362;28;20213;-85
2022/04/22 03:58:12;;;;;;;37.03;24.57;;;;;;;10.00;100.00;94491.97;5033253;28;20361;-85
2022/04/22 04:00:41;;;;;;;40.07;23.83;;;;;;;9.99;100.00;94483.38;5032200;28;20230;-85
2022/04/22 04:03:09;;;;;;;36.23;22.97;;;;;;;10.06;100.00;94507.47;5034310;28;20195;-90
2022/04/22 04:05:37;;;;;;;36.67;22.53;;;;;;;10.01;100.00;94506.56;5034726;28;20198;-90
2022/04/22 04:08:04;;;;;;;39.40;24.53;;;;;;;9.78;100.00;94463.09;5020774;28;20199;-88
2022/04/22 04:16:00;;;;;;;34.47;21.07;;;;;;;9.88;100.00;94478.94;5031942;28;20190;-83
2022/04/22 04:18:29;;;;;;;38.60;22.73;;;;;;;9.93;100.00;94479.06;5032664;28;20199;-83
2022/04/22 04:23:40;;;;;;;32.90;21.47;;;;;;;9.92;100.00;94490.47;5032647;28;20226;-88
2022/04/22 04:26:09;;;;;;;32.33;20.47;;;;;;;9.92;100.00;94487.88;5032605;28;20191;-86
2022/04/22 04:28:36;;;;;;;28.47;19.87;;;;;;;9.86;100.00;94467.97;5035290;28;20205;-86
2022/04/22 04:31:04;;;;;;;30.80;22.03;;;;;;;9.97;100.00;94488.00;5052399;28;20640;-83
2022/04/22 04:33:31;;;;;;;30.67;20.90;;;;;;;9.98;100.00;94476.63;5052699;28;20186;-83
2022/04/22 04:35:58;;;;;;;30.47;21.37;;;;;;;9.97;100.00;94493.22;5052136;28;21024;-84
2022/04/22 04:38:28;;;;;;;34.73;20.57;;;;;;;9.96;100.00;94470.03;5052219;28;20248;-83
2022/04/22 04:40:56;;;;;;;34.37;19.83;;;;;;;9.96;100.00;94464.84;5052237;28;20213;-84
2022/04/22 04:43:25;;;;;;;30.47;20.70;;;;;;;9.99;100.00;94457.44;5051941;28;20198;-83
2022/04/22 04:45:52;;;;;;;29.27;19.70;;;;;;;9.96;100.00;94462.25;5052099;28;20201;-84
2022/04/22 04:48:19;;;;;;;25.17;17.30;;;;;;;10.04;100.00;94470.53;5051964;28;20194;-85
2022/04/22 04:50:47;;;;;;;26.60;17.43;;;;;;;10.02;100.00;94488.16;5020293;28;20192;-85
2022/04/22 04:53:14;;;;;;;23.37;16.13;;;;;;;10.00;100.00;94469.41;5023851;28;20222;-86
2022/04/22 04:55:42;;;;;;;21.53;15.23;;;;;;;10.06;100.00;94465.16;5017510;28;20685;-86
2022/04/22 04:58:09;;;;;;;24.37;15.80;;;;;;;10.05;100.00;94468.75;5011913;28;20183;-86
2022/04/22 05:00:37;;;;;;;23.10;15.50;;;;;;;10.11;100.00;94466.06;5023224;28;20226;-87
2022/04/22 05:03:05;;;;;;;24.70;15.50;;;;;;;10.14;100.00;94460.47;5032198;28;20202;-84
2022/04/22 05:05:32;;;;;;;25.97;15.93;;;;;;;10.10;100.00;94455.91;5031672;28;20190;-85
2022/04/22 05:08:00;;;;;;;27.23;15.70;;;;;;;10.04;100.00;94434.19;5015369;28;20199;-84
2022/04/22 05:10:28;;;;;;;23.40;15.93;;;;;;;10.14;100.00;94442.28;5012590;28;20199;-86
2022/04/22 05:12:55;;;;;;;24.03;16.00;;;;;;;10.23;100.00;94446.16;5017245;28;20582;-85
2022/04/22 05:15:23;;;;;;;26.07;15.83;;;;;;;10.14;100.00;94439.69;5014610;28;20195;-86
2022/04/22 05:17:53;;;;;;;20.30;15.03;;;;;;;10.15;100.00;94427.50;5018219;28;20229;-86
2022/04/22 05:20:21;;;;;;;23.00;15.10;;;;;;;10.01;100.00;94415.69;5027168;28;20215;-87
2022/04/22 05:22:49;;;;;;;26.70;16.13;;;;;;;10.06;100.00;94393.25;5028623;28;20195;-86
2022/04/22 05:25:17;;;;;;;26.80;16.07;;;;;;;10.02;100.00;94399.88;5016511;28;20226;-86
2022/04/22 05:27:44;;;;;;;22.57;14.97;;;;;;;9.97;100.00;94381.59;5012012;28;20202;-85
2022/04/22 05:32:59;;;;;;;21.43;15.03;;;;;;;10.05;100.00;94354.50;5012420;28;20198;-85
2022/04/22 05:35:27;;;;;;;23.27;14.53;;;;;;;10.07;100.00;94360.28;5011478;28;20195;-85
2022/04/22 05:37:55;;;;;;;20.90;14.40;;;;;;;10.09;100.00;94338.28;5018428;28;20285;-83
2022/04/22 05:40:24;;;;;;;21.97;14.17;;;;;;;10.15;100.00;94321.06;5031899;28;20222;-87
2022/04/22 05:42:52;;;;;;;21.87;13.60;;;;;;;10.19;100.00;94298.81;5031913;28;20199;-85
2022/04/22 05:45:20;;;;;;;24.20;14.33;;;;;;;10.12;100.00;94311.09;5029032;28;20199;-76
2022/04/22 05:47:47;;;;;;;21.47;13.73;;;;;;;10.14;100.00;94289.09;5019798;28;20256;-76
2022/04/22 05:50:17;;;;;;;19.13;12.60;;;;;;;10.24;100.00;94278.94;5019791;28;20188;-74
2022/04/22 05:52:44;;;;;;;18.50;12.80;;;;;;;10.34;100.00;94288.78;5019589;28;20186;-73
2022/04/22 05:55:20;;;;;;;18.00;12.60;;;;;;;10.32;100.00;94301.19;5019339;28;20646;-73
2022/04/22 05:57:49;;;;;;;17.07;12.33;;;;;;;10.38;100.00;94289.91;5018162;28;20338;-73
2022/04/22 06:00:18;;;;;;;20.17;13.53;;;;;;;10.49;100.00;94291.72;5017930;28;20212;-75
2022/04/22 06:02:46;;;;;;;18.33;12.53;;;;;;;10.53;100.00;94287.66;5018437;28;20192;-75
2022/04/22 06:05:15;;;;;;;17.77;12.57;;;;;;;10.57;100.00;94285.38;5019892;28;20653;-75
2022/04/22 06:07:44;;;;;;;20.53;13.03;;;;;;;10.64;100.00;94289.47;5018885;28;20188;-75
2022/04/22 06:12:57;;;;;;;18.90;12.47;;;;;;;10.68;100.00;94282.78;5019282;28;20195;-76
2022/04/22 06:15:25;;;;;;;18.80;12.23;;;;;;;10.73;100.00;94284.72;5026204;28;20201;-75
2022/04/22 06:18:02;;;;;;;20.10;12.87;;;;;;;10.73;100.00;94272.50;5017744;28;20230;-77
2022/04/22 06:20:29;;;;;;;18.30;12.57;;;;;;;10.70;100.00;94279.97;5018226;28;20318;-72
2022/04/22 06:22:57;;;;;;;17.90;12.87;;;;;;;10.74;100.00;94281.88;5014154;28;20192;-75
2022/04/22 06:25:24;;;;;;;20.53;13.03;;;;;;;10.56;100.00;94271.59;5017896;28;20240;-73
2022/04/22 06:27:51;;;;;;;18.63;13.90;;;;;;;10.67;100.00;94270.81;5016333;28;20199;-73
2022/04/22 06:30:20;;;;;;;20.27;13.53;;;;;;;10.59;100.00;94270.38;5019111;28;20183;-73
2022/04/22 06:32:49;;;;;;;18.43;13.30;;;;;;;10.69;100.00;94270.59;5017983;28;20618;-73
2022/04/22 06:35:18;;;;;;;19.30;12.23;;;;;;;10.72;100.00;94275.31;5016568;28;20767;-74
2022/04/22 06:37:46;;;;;;;17.97;12.53;;;;;;;10.65;100.00;94283.22;5020934;28;20600;-73
2022/04/22 06:45:49;;;;;;;19.13;12.43;;;;;;;10.89;100.00;94302.19;5027139;28;20236;-73
2022/04/22 06:48:18;;;;;;;18.90;12.90;;;;;;;10.95;100.00;94293.50;5024796;28;20194;-73
2022/04/22 06:50:47;;;;;;;18.63;11.33;;;;;;;10.98;100.00;94292.25;5022408;28;20191;-73
2022/04/22 06:53:16;;;;;;;16.47;12.33;;;;;;;11.12;100.00;94296.16;5024709;28;20197;-73
2022/04/22 06:55:45;;;;;;;17.03;10.97;;;;;;;11.21;100.00;94292.19;5033528;28;20697;-73
2022/04/22 06:58:14;;;;;;;14.97;10.63;;;;;;;11.20;100.00;94275.78;5033315;28;20645;-73
2022/04/22 07:00:42;;;;;;;15.53;9.93;;;;;;;11.31;100.00;94258.59;5019483;28;20223;-73
2022/04/22 07:03:10;;;;;;;14.63;10.10;;;;;;;11.30;100.00;94263.00;5017771;28;20203;-73
2022/04/22 07:05:38;;;;;;;13.57;9.83;;;;;;;11.40;100.00;94272.78;5024086;28;20245;-73
2022/04/22 07:08:07;;;;;;;15.43;10.63;;;;;;;11.49;100.00;94265.38;5024854;28;20598;-73
2022/04/22 07:10:35;;;;;;;14.03;10.30;;;;;;;11.56;100.00;94279.06;5021637;28;20191;-73
2022/04/22 07:13:04;;;;;;;16.47;10.47;;;;;;;11.62;100.00;94259.91;5023117;28;20200;-72
2022/04/22 07:15:31;;;;;;;17.73;10.13;;;;;;;11.65;100.00;94275.06;5021418;28;20587;-73
2022/04/22 07:17:59;;;;;;;15.87;9.93;;;;;;;11.76;100.00;94250.81;5020936;28;20199;-72
2022/04/22 07:20:26;;;;;;;16.73;10.80;;;;;;;11.92;100.00;94261.25;5024503;28;20234;-73
2022/04/22 07:22:54;;;;;;;15.47;9.83;;;;;;;12.08;100.00;94264.91;5022151;28;20235;-74
2022/04/22 07:25:22;;;;;;;13.10;9.90;;;;;;;12.12;100.00;94273.81;5023764;28;20258;-74
2022/04/22 07:27:49;;;;;;;15.50;9.53;;;;;;;12.22;100.00;94265.38;5023480;28;20222;-74
2022/04/22 07:30:20;;;;;;;13.57;8.53;;;;;;;12.34;100.00;94264.28;5023976;28;20191;-72
2022/04/22 07:32:48;;;;;;;14.83;8.30;;;;;;;12.47;100.00;94274.34;5020952;28;20203;-72
2022/04/22 07:35:17;;;;;;;13.10;8.73;;;;;;;12.56;100.00;94266.91;5021618;28;20187;-72
2022/04/22 07:37:45;;;;;;;12.77;8.03;;;;;;;12.69;100.00;94284.84;5022853;28;20690;-75
2022/04/22 07:40:13;;;;;;;13.87;8.37;;;;;;;12.78;100.00;94267.78;5018608;28;20218;-73
2022/04/22 07:46:46;;;;;;;12.33;7.17;;;;;;;12.86;100.00;94283.00;5018757;28;20195;-74
2022/04/22 07:48:16;;;;;;;12.00;6.97;;;;;;;13.06;99.92;94272.03;5025778;28;20333;-72
2022/04/22 07:50:45;;;;;;;10.87;7.77;;;;;;;13.11;100.00;94263.50;5025077;28;20203;-73
2022/04/22 07:53:12;;;;;;;14.67;7.57;;;;;;;13.26;96.62;94271.50;5024163;28;20222;-74
2022/04/22 07:55:39;;;;;;;12.63;7.67;;;;;;;13.30;96.99;94290.88;5021343;28;20687;-73
2022/04/22 07:58:07;;;;;;;13.03;8.50;;;;;;;13.40;96.22;94289.16;5016008;28;20191;-73
2022/04/22 08:00:35;;;;;;;15.03;8.47;;;;;;;13.49;97.70;94279.09;5017083;28;20243;-78
2022/04/22 08:03:02;;;;;;;10.20;8.17;;;;;;;13.51;95.70;94305.72;5017639;28;20195;-84
2022/04/22 08:05:29;;;;;;;12.23;8.20;;;;;;;13.59;96.02;94319.13;5020736;28;20658;-79
2022/04/22 08:07:57;;;;;;;13.70;8.20;;;;;;;13.67;96.79;94304.88;5019372;28;20203;-79
2022/04/22 08:10:25;;;;;;;12.37;8.53;;;;;;;13.77;97.55;94317.22;5020470;28;20204;-79
2022/04/22 08:12:54;;;;;;;12.33;8.90;;;;;;;13.93;98.73;94326.81;5018379;28;20542;-81
2022/04/22 08:15:22;;;;;;;13.47;7.70;;;;;;;14.03;96.15;94314.63;5022032;28;20203;-79
2022/04/22 08:17:50;;;;;;;10.90;7.43;;;;;;;14.13;97.50;94303.50;5021827;28;20227;-79
2022/04/22 08:20:18;;;;;;;9.90;7.70;;;;;;;14.23;97.05;94292.34;5023996;28;20222;-78
2022/04/22 08:22:45;;;;;;;12.13;7.63;;;;;;;14.27;98.44;94281.13;5021625;28;20200;-79
2022/04/22 08:25:12;;;;;;;11.13;7.27;;;;;;;14.49;96.59;94278.44;5020582;28;20227;-77
2022/04/22 08:27:40;;;;;;;9.93;7.43;;;;;;;14.57;95.10;94275.38;5023181;28;20202;-84
2022/04/22 08:30:09;;;;;;;12.07;7.50;;;;;;;14.69;92.92;94281.19;5019693;28;20607;-75
2022/04/22 08:32:36;;;;;;;10.93;6.83;;;;;;;14.70;94.63;94269.69;5022238;28;20232;-76
2022/04/22 08:35:08;;;;;;;12.73;7.37;;;;;;;14.72;92.19;94281.47;5022281;28;20253;-75
2022/04/22 08:37:36;;;;;;;9.77;7.30;;;;;;;14.77;92.42;94268.41;5021889;28;20195;-83
2022/04/22 08:40:04;;;;;;;14.77;8.27;;;;;;;14.89;93.25;94257.75;5020460;28;20677;-81
2022/04/22 08:42:33;;;;;;;10.47;7.47;;;;;;;15.01;95.79;94249.72;5022370;28;20666;-79
2022/04/22 08:45:01;;;;;;;12.90;7.50;;;;;;;15.19;96.07;94265.78;5022901;28;20724;-79
2022/04/22 08:50:16;;;;;;;12.23;7.40;;;;;;;15.48;95.24;94260.13;5025189;28;20329;-78
2022/04/22 08:52:44;;;;;;;11.33;7.23;;;;;;;15.65;92.41;94258.88;5014639;28;20191;-78
2022/04/22 08:55:13;;;;;;;12.70;7.50;;;;;;;15.84;93.21;94243.47;5016352;28;20665;-80
2022/04/22 08:57:42;;;;;;;11.57;7.00;;;;;;;15.98;91.34;94239.28;5015825;28;20275;-78
2022/04/22 09:00:10;;;;;;;13.03;7.17;;;;;;;16.23;90.48;94243.75;5018296;28;20195;-79
2022/04/22 09:02:38;;;;;;;10.23;6.63;;;;;;;16.41;89.22;94253.72;5021646;28;20274;-78
2022/04/22 09:05:08;;;;;;;11.37;6.63;;;;;;;16.64;86.50;94239.28;5017834;28;20192;-78
2022/04/22 09:07:42;;;;;;;9.30;6.20;;;;;;;16.75;86.96;94235.59;5020091;28;20192;-77
2022/04/22 09:10:09;;;;;;;7.57;5.67;;;;;;;17.12;91.61;94214.19;5022126;28;20184;-78
2022/04/22 09:12:37;;;;;;;11.90;6.93;;;;;;;17.05;83.73;94234.72;5020467;28;20191;-83
2022/04/22 09:15:06;;;;;;;8.77;6.03;;;;;;;17.01;82.49;94237.88;5016725;28;20207;-78
2022/04/22 09:17:35;;;;;;;11.13;6.57;;;;;;;17.02;83.53;94242.09;5018401;28;20562;-85
2022/04/22 09:20:04;;;;;;;11.97;6.37;;;;;;;17.14;83.23;94223.41;5019926;28;20647;-85
2022/04/22 09:22:35;;;;;;;12.37;6.50;;;;;;;17.17;80.81;94227.34;5022368;28;20826;-86
2022/04/22 09:25:05;;;;;;;13.33;7.73;;;;;;;17.26;80.16;94230.94;5019413;28;20259;-81
2022/04/22 09:27:33;;;;;;;11.17;7.57;;;;;;;17.32;81.46;94232.50;5021976;28;20237;-81
2022/04/22 09:30:02;;;;;;;12.37;6.77;;;;;;;17.31;82.63;94223.06;5020157;28;20283;-82
2022/04/22 09:32:30;;;;;;;16.83;7.03;;;;;;;17.42;81.39;94228.00;5019219;28;20194;-77
2022/04/22 09:34:58;;;;;;;10.53;6.87;;;;;;;17.61;80.72;94217.66;5023038;28;20203;-83
2022/04/22 09:42:58;;;;;;;8.87;6.33;;;;;;;17.91;79.49;94217.50;5015654;28;20264;-78
2022/04/22 09:45:37;;;;;;;9.77;6.20;;;;;;;17.97;78.36;94202.47;5016307;28;20199;-78
2022/04/22 09:48:13;;;;;;;10.77;5.77;;;;;;;18.10;77.06;94205.25;5020197;28;20201;-78
2022/04/22 09:50:45;;;;;;;8.87;6.03;;;;;;;18.14;77.87;94203.63;5018909;28;20195;-78
2022/04/22 09:53:13;;;;;;;11.17;6.10;;;;;;;18.36;79.30;94191.88;5021535;28;20203;-78
2022/04/22 09:55:53;;;;;;;10.37;6.50;;;;;;;18.57;77.93;94193.28;5018942;28;20641;-79
2022/04/22 09:58:24;;;;;;;11.20;6.10;;;;;;;18.69;75.81;94188.44;5019535;28;20199;-78
2022/04/22 10:01:00;;;;;;;9.00;6.00;;;;;;;18.88;74.13;94168.19;5018393;28;20226;-78
2022/04/22 10:03:29;;;;;;;10.25;5.97;;;;;;;19.00;73.50;94167.78;5018163;28;20695;-79
2022/04/22 10:05:56;;;;;;;16.17;6.57;;;;;;;19.11;73.87;94167.38;5017803;28;20282;-78
2022/04/22 10:08:25;;;;;;;9.45;6.60;;;;;;;19.37;73.04;94164.41;5018562;28;20701;-79
2022/04/22 10:10:55;;;;;;;8.88;6.07;;;;;;;19.47;73.66;94166.97;5018717;28;20210;-78
2022/04/22 10:13:26;;;;;;;11.98;5.88;;;;;;;19.65;73.66;94171.47;5021635;28;20209;-77
2022/04/22 10:15:53;;;;;;;10.15;5.85;;;;;;;19.94;71.94;94147.56;5019787;28;20249;-79
2022/04/22 10:18:22;;;;;;;8.55;5.45;;;;;;;20.15;71.57;94154.03;5021599;28;20206;-78
2022/04/22 10:20:50;;;;;;;10.27;6.15;;;;;;;20.33;70.75;94147.97;5017766;28;20742;-79
2022/04/22 10:23:17;;;;;;;8.18;6.20;;;;;;;20.18;69.31;94153.47;5023198;28;20203;-79
2022/04/22 10:25:43;;;;;;;13.18;5.35;;;;;;;20.54;69.93;94140.47;5026907;28;20198;-79
2022/04/22 10:28:13;;;;;;;10.52;6.13;;;;;;;20.49;69.05;94151.13;5022176;28;20194;-79
2022/04/22 10:30:42;;;;;;;10.82;6.07;;;;;;;20.54;68.22;94127.28;5025153;28;20207;-79
2022/04/22 10:33:09;;;;;;;11.50;5.78;;;;;;;20.68;70.30;94128.06;5024654;28;20760;-80
2022/04/22 10:35:41;;;;;;;12.80;6.25;;;;;;;20.80;68.13;94123.06;5023582;28;20198;-79
2022/04/22 10:38:26;;;;;;;8.63;6.15;;;;;;;21.14;69.26;94126.09;5024477;28;20222;-78
2022/04/22 10:40:53;;;;;;;11.23;5.93;;;;;;;21.60;65.11;94125.09;5022931;28;20715;-79
2022/04/22 10:43:22;;;;;;;13.65;5.70;;;;;;;21.85;66.02;94112.06;5025235;28;20202;-79
2022/04/22 10:48:33;;;;;;;10.05;5.07;;;;;;;22.16;63.07;94101.56;5023387;28;20225;-78
2022/04/22 10:51:01;;;;;;;9.65;4.72;;;;;;;22.36;62.79;94098.41;5024624;28;20268;-79
2022/04/22 10:53:29;;;;;;;14.52;5.57;;;;;;;22.55;62.06;94101.59;5021587;28;20199;-79
2022/04/22 10:56:43;;;;;;;9.38;4.93;;;;;;;22.56;60.44;94095.22;5023730;28;20202;-79
2022/04/22 10:59:32;;;;;;;9.02;5.35;;;;;;;22.43;59.92;94106.69;4964363;28;20287;-78
2022/04/22 11:02:01;;;;;;;7.70;4.97;;;;;;;22.23;59.93;94112.50;5017788;28;20774;-79
2022/04/22 11:04:29;;;;;;;9.93;5.22;;;;;;;22.36;60.05;94094.97;5020702;28;20250;-79
2022/04/22 11:06:57;;;;;;;12.70;4.57;;;;;;;22.42;60.40;94075.22;5023901;28;20203;-78
2022/04/22 11:09:26;;;;;;;7.80;4.93;;;;;;;22.53;60.91;94095.81;5023443;28;20238;-79
2022/04/22 11:11:53;;;;;;;9.48;4.70;;;;;;;22.68;59.61;94110.56;5024950;28;20282;-79
2022/04/22 11:14:23;;;;;;;10.65;4.68;;;;;;;23.00;56.92;94098.81;5022930;28;20205;-80
2022/04/22 11:16:51;;;;;;;8.45;4.40;;;;;;;23.18;55.92;94057.97;5024345;28;20632;-81
2022/04/22 11:19:37;;;;;;;9.45;4.80;;;;;;;23.24;53.84;94067.31;5022849;28;20198;-79
2022/04/22 11:22:07;;;;;;;14.27;4.90;;;;;;;23.24;52.75;94077.16;5023405;28;20225;-79
2022/04/22 11:24:34;;;;;;;11.02;4.88;;;;;;;22.99;53.65;94065.44;5025359;28;20633;-78
2022/04/22 11:27:07;;;;;;;8.38;4.90;;;;;;;22.84;53.82;94071.16;5028185;28;20264;-79
2022/04/22 11:29:34;;;;;;;8.90;4.75;;;;;;;22.44;54.14;94065.88;5025719;28;20210;-79
2022/04/22 11:32:06;;;;;;;10.98;5.63;;;;;;;22.24;55.52;94063.75;5024832;28;20199;-78
2022/04/22 11:35:01;;;;;;;10.30;5.45;;;;;;;21.83;57.43;94044.66;5025223;28;20233;-80
2022/04/22 11:37:28;;;;;;;7.55;4.88;;;;;;;21.86;57.94;94052.00;5022306;28;20192;-79
2022/04/22 11:39:55;;;;;;;8.82;4.93;;;;;;;21.95;57.33;94044.91;5023979;28;20630;-79
2022/04/22 11:42:22;;;;;;;15.80;5.03;;;;;;;22.00;57.57;94044.78;5021655;28;20606;-80
2022/04/22 11:45:02;;;;;;;15.07;5.15;;;;;;;22.33;57.22;94026.72;5024652;28;20707;-81
2022/04/22 11:47:31;;;;;;;13.45;5.00;;;;;;;22.71;55.78;94030.47;5020384;28;20191;-80
2022/04/22 11:49:58;;;;;;;9.15;4.72;;;;;;;23.12;54.51;94030.03;5021690;28;20317;-81
2022/04/22 11:52:28;;;;;;;10.63;4.75;;;;;;;23.20;54.47;94023.19;5020160;28;20553;-80
2022/04/22 11:55:00;;;;;;;10.27;4.70;;;;;;;23.48;52.54;94019.16;5023973;28;20208;-80
2022/04/22 11:57:26;;;;;;;7.53;4.32;;;;;;;23.61;52.46;94013.66;5019862;28;20245;-76
2022/04/22 12:05:36;;;;;;;9.48;4.35;;;;;;;23.94;49.94;94015.78;5023737;28;20198;-76
2022/04/22 12:08:05;;;;;;;8.90;5.13;;;;;;;24.06;52.43;94027.31;5020437;28;20649;-76
2022/04/22 12:10:33;;;;;;;8.35;4.60;;;;;;;24.14;47.90;94015.13;5022819;28;20206;-76
2022/04/22 12:13:02;;;;;;;11.15;4.07;;;;;;;24.23;48.19;94018.53;5023995;28;20214;-77